sensor_id;sensor_type;location;lat;lon;timestamp;pressure;altitude;pressure_sealevel;temperature;humidity
78755;BME280;68073;54.176;-4.554;2023-03-23T00:00:29;98359.64;;;7.51;49.31
78755;BME280;68073;54.176;-4.554;2023-03-23T00:02:54;98361.68;;;7.73;49.42
78755;BME280;68073;54.176;-4.554;2023-03-23T00:05:19;98367.60;;;7.88;49.59
78755;BME280;68073;54.176;-4.554;2023-03-23T00:07:44;98372.23;;;7.71;50.01
78755;BME280;68073;54.176;-4.554;2023-03-23T00:10:10;98367.30;;;7.82;49.45
78755;BME280;68073;54.176;-4.554;2023-03-23T00:12:34;98372.15;;;7.74;49.68
78755;BME280;68073;54.176;-4.554;2023-03-23T00:15:02;98374.41;;;7.52;49.80
78755;BME280;68073;54.176;-4.554;2023-03-23T00:17:25;98377.74;;;7.88;49.65
78755;BME280;68073;54.176;-4.554;2023-03-23T00:19:50;98381.63;;;7.91;49.82
78755;BME280;68073;54.176;-4.554;2023-03-23T00:22:16;98386.58;;;7.71;49.31
78755;BME280;68073;54.176;-4.554;2023-03-23T00:24:41;98387.79;;;7.63;49.35
78755;BME280;68073;54.176;-4.554;2023-03-23T00:27:05;98397.31;;;7.98;49.32
78755;BME280;68073;54.176;-4.554;2023-03-23T00:29:31;98399.23;;;7.96;49.35
78755;BME280;68073;54.176;-4.554;2023-03-23T00:32:01;98403.89;;;8.02;49.65
78755;BME280;68073;54.176;-4.554;2023-03-23T00:34:22;98414.54;;;8.11;49.50
78755;BME280;68073;54.176;-4.554;2023-03-23T00:36:47;98415.95;;;7.81;49.47
78755;BME280;68073;54.176;-4.554;2023-03-23T00:39:11;98421.86;;;7.89;49.95
78755;BME280;68073;54.176;-4.554;2023-03-23T00:41:36;98421.63;;;7.89;49.56
78755;BME280;68073;54.176;-4.554;2023-03-23T00:44:02;98431.71;;;7.93;49.49
78755;BME280;68073;54.176;-4.554;2023-03-23T00:46:27;98432.97;;;7.67;49.92
78755;BME280;68073;54.176;-4.554;2023-03-23T00:48:52;98433.96;;;7.64;49.68
78755;BME280;68073;54.176;-4.554;2023-03-23T00:51:17;98437.66;;;7.78;49.83
78755;BME280;68073;54.176;-4.554;2023-03-23T00:53:43;98445.00;;;8.19;49.45
78755;BME280;68073;54.176;-4.554;2023-03-23T00:56:09;98448.65;;;7.73;49.80
78755;BME280;68073;54.176;-4.554;2023-03-23T00:58:33;98456.41;;;7.80;49.70
78755;BME280;68073;54.176;-4.554;2023-03-23T01:00:58;98461.02;;;7.74;49.53
78755;BME280;68073;54.176;-4.554;2023-03-23T01:03:23;98455.65;;;7.93;49.66
78755;BME280;68073;54.176;-4.554;2023-03-23T01:05:49;98451.10;;;7.81;49.17
78755;BME280;68073;54.176;-4.554;2023-03-23T01:08:14;98450.56;;;7.89;48.81
78755;BME280;68073;54.176;-4.554;2023-03-23T01:10:40;98454.75;;;8.08;48.81
78755;BME280;68073;54.176;-4.554;2023-03-23T01:13:06;98460.97;;;7.61;48.85
78755;BME280;68073;54.176;-4.554;2023-03-23T01:15:30;98465.47;;;7.68;49.01
78755;BME280;68073;54.176;-4.554;2023-03-23T01:17:56;98465.13;;;7.70;49.45
78755;BME280;68073;54.176;-4.554;2023-03-23T01:20:20;98463.89;;;7.92;48.53
78755;BME280;68073;54.176;-4.554;2023-03-23T01:22:46;98468.09;;;7.47;48.62
78755;BME280;68073;54.176;-4.554;2023-03-23T01:25:12;98466.74;;;8.18;48.12
78755;BME280;68073;54.176;-4.554;2023-03-23T01:27:37;98463.10;;;7.76;48.31
78755;BME280;68073;54.176;-4.554;2023-03-23T01:30:02;98461.15;;;7.97;48.41
78755;BME280;68073;54.176;-4.554;2023-03-23T01:32:28;98468.13;;;8.22;47.94
78755;BME280;68073;54.176;-4.554;2023-03-23T01:34:52;98463.11;;;8.21;48.07
78755;BME280;68073;54.176;-4.554;2023-03-23T01:37:17;98465.54;;;8.08;48.02
78755;BME280;68073;54.176;-4.554;2023-03-23T01:39:42;98466.17;;;8.48;47.95
78755;BME280;68073;54.176;-4.554;2023-03-23T01:42:08;98464.42;;;8.04;48.04
78755;BME280;68073;54.176;-4.554;2023-03-23T01:46:58;98468.65;;;8.11;48.10
78755;BME280;68073;54.176;-4.554;2023-03-23T01:49:26;98468.19;;;7.91;48.48
78755;BME280;68073;54.176;-4.554;2023-03-23T01:51:51;98463.20;;;7.90;48.77
78755;BME280;68073;54.176;-4.554;2023-03-23T01:54:16;98464.47;;;7.99;48.75
78755;BME280;68073;54.176;-4.554;2023-03-23T01:56:41;98464.95;;;8.06;49.18
78755;BME280;68073;54.176;-4.554;2023-03-23T01:59:04;98462.53;;;8.16;48.98
78755;BME280;68073;54.176;-4.554;2023-03-23T02:01:30;98454.67;;;8.60;48.66
78755;BME280;68073;54.176;-4.554;2023-03-23T02:03:56;98457.13;;;8.10;49.41
78755;BME280;68073;54.176;-4.554;2023-03-23T02:06:20;98460.00;;;8.30;48.79
78755;BME280;68073;54.176;-4.554;2023-03-23T02:08:46;98455.92;;;8.18;48.98
78755;BME280;68073;54.176;-4.554;2023-03-23T02:11:14;98454.48;;;8.30;48.92
78755;BME280;68073;54.176;-4.554;2023-03-23T02:13:35;98461.32;;;8.37;48.99
78755;BME280;68073;54.176;-4.554;2023-03-23T02:16:06;98459.53;;;8.16;49.17
78755;BME280;68073;54.176;-4.554;2023-03-23T02:18:36;98455.91;;;8.23;49.69
78755;BME280;68073;54.176;-4.554;2023-03-23T02:21:06;98457.16;;;8.08;49.42
78755;BME280;68073;54.176;-4.554;2023-03-23T02:23:27;98450.98;;;8.13;49.46
78755;BME280;68073;54.176;-4.554;2023-03-23T02:25:55;98448.41;;;8.45;49.63
78755;BME280;68073;54.176;-4.554;2023-03-23T02:28:25;98448.34;;;8.66;49.68
78755;BME280;68073;54.176;-4.554;2023-03-23T02:30:46;98454.40;;;8.14;50.01
78755;BME280;68073;54.176;-4.554;2023-03-23T02:33:12;98447.45;;;8.09;50.35
78755;BME280;68073;54.176;-4.554;2023-03-23T02:35:27;98449.63;;;8.08;49.85
78755;BME280;68073;54.176;-4.554;2023-03-23T02:37:51;98452.64;;;8.13;50.22
78755;BME280;68073;54.176;-4.554;2023-03-23T02:40:18;98454.89;;;8.32;50.21
78755;BME280;68073;54.176;-4.554;2023-03-23T02:42:40;98453.85;;;8.30;50.32
78755;BME280;68073;54.176;-4.554;2023-03-23T02:45:06;98449.10;;;7.91;49.87
78755;BME280;68073;54.176;-4.554;2023-03-23T02:47:29;98445.80;;;8.10;49.91
78755;BME280;68073;54.176;-4.554;2023-03-23T02:49:55;98447.13;;;8.37;49.99
78755;BME280;68073;54.176;-4.554;2023-03-23T02:52:21;98445.58;;;8.00;50.00
78755;BME280;68073;54.176;-4.554;2023-03-23T02:54:46;98443.74;;;8.03;50.44
78755;BME280;68073;54.176;-4.554;2023-03-23T02:57:09;98443.56;;;8.07;50.73
78755;BME280;68073;54.176;-4.554;2023-03-23T02:59:34;98440.81;;;7.99;50.96
78755;BME280;68073;54.176;-4.554;2023-03-23T03:02:06;98440.23;;;7.82;51.33
78755;BME280;68073;54.176;-4.554;2023-03-23T03:04:26;98435.73;;;7.64;51.72
78755;BME280;68073;54.176;-4.554;2023-03-23T03:07:01;98435.37;;;8.15;51.36
78755;BME280;68073;54.176;-4.554;2023-03-23T03:09:19;98429.73;;;8.32;51.20
78755;BME280;68073;54.176;-4.554;2023-03-23T03:11:45;98425.99;;;8.11;51.24
78755;BME280;68073;54.176;-4.554;2023-03-23T03:14:10;98423.72;;;8.32;50.76
78755;BME280;68073;54.176;-4.554;2023-03-23T03:16:34;98420.41;;;8.33;51.26
78755;BME280;68073;54.176;-4.554;2023-03-23T03:19:00;98421.06;;;8.37;51.31
78755;BME280;68073;54.176;-4.554;2023-03-23T03:21:25;98418.64;;;8.51;51.02
78755;BME280;68073;54.176;-4.554;2023-03-23T03:23:49;98424.48;;;8.10;50.86
78755;BME280;68073;54.176;-4.554;2023-03-23T03:26:13;98423.39;;;8.27;51.10
78755;BME280;68073;54.176;-4.554;2023-03-23T03:28:39;98416.30;;;8.51;51.32
78755;BME280;68073;54.176;-4.554;2023-03-23T03:31:05;98413.20;;;8.42;51.47
78755;BME280;68073;54.176;-4.554;2023-03-23T03:33:30;98408.02;;;8.52;51.20
78755;BME280;68073;54.176;-4.554;2023-03-23T03:35:56;98409.20;;;8.13;52.09
78755;BME280;68073;54.176;-4.554;2023-03-23T03:38:21;98408.74;;;8.38;52.19
78755;BME280;68073;54.176;-4.554;2023-03-23T03:40:46;98410.73;;;8.33;51.87
78755;BME280;68073;54.176;-4.554;2023-03-23T03:43:11;98412.88;;;8.46;51.86
78755;BME280;68073;54.176;-4.554;2023-03-23T03:45:36;98401.42;;;8.03;52.46
78755;BME280;68073;54.176;-4.554;2023-03-23T03:48:01;98405.89;;;8.25;52.27
78755;BME280;68073;54.176;-4.554;2023-03-23T03:50:26;98404.92;;;8.28;52.07
78755;BME280;68073;54.176;-4.554;2023-03-23T03:52:51;98403.08;;;8.44;51.56
78755;BME280;68073;54.176;-4.554;2023-03-23T03:55:16;98403.77;;;8.08;51.70
78755;BME280;68073;54.176;-4.554;2023-03-23T03:57:41;98404.39;;;8.35;51.64
78755;BME280;68073;54.176;-4.554;2023-03-23T04:00:08;98402.37;;;8.11;51.99
78755;BME280;68073;54.176;-4.554;2023-03-23T04:02:32;98401.12;;;8.21;52.02
78755;BME280;68073;54.176;-4.554;2023-03-23T04:04:57;98402.36;;;8.34;52.25
78755;BME280;68073;54.176;-4.554;2023-03-23T04:07:22;98397.21;;;8.01;53.02
78755;BME280;68073;54.176;-4.554;2023-03-23T04:09:47;98392.65;;;8.20;53.22
78755;BME280;68073;54.176;-4.554;2023-03-23T04:12:12;98387.64;;;7.97;53.14
78755;BME280;68073;54.176;-4.554;2023-03-23T04:14:37;98387.91;;;7.94;53.37
78755;BME280;68073;54.176;-4.554;2023-03-23T04:17:03;98385.02;;;8.06;53.21
78755;BME280;68073;54.176;-4.554;2023-03-23T04:19:28;98383.61;;;8.37;53.16
78755;BME280;68073;54.176;-4.554;2023-03-23T04:21:53;98375.66;;;8.46;53.17
78755;BME280;68073;54.176;-4.554;2023-03-23T04:24:19;98379.88;;;8.18;53.29
78755;BME280;68073;54.176;-4.554;2023-03-23T04:26:44;98380.61;;;8.47;53.05
78755;BME280;68073;54.176;-4.554;2023-03-23T04:29:09;98382.40;;;8.42;53.29
78755;BME280;68073;54.176;-4.554;2023-03-23T04:31:34;98383.86;;;8.24;53.96
78755;BME280;68073;54.176;-4.554;2023-03-23T04:33:59;98386.11;;;8.35;53.78
78755;BME280;68073;54.176;-4.554;2023-03-23T04:36:24;98381.96;;;8.38;54.24
78755;BME280;68073;54.176;-4.554;2023-03-23T04:38:50;98375.42;;;8.64;53.75
78755;BME280;68073;54.176;-4.554;2023-03-23T04:41:15;98385.67;;;8.41;54.17
78755;BME280;68073;54.176;-4.554;2023-03-23T04:43:40;98382.88;;;8.61;54.43
78755;BME280;68073;54.176;-4.554;2023-03-23T04:46:05;98385.37;;;8.42;55.60
78755;BME280;68073;54.176;-4.554;2023-03-23T04:48:31;98382.91;;;7.95;56.46
78755;BME280;68073;54.176;-4.554;2023-03-23T04:50:56;98377.30;;;8.55;56.22
78755;BME280;68073;54.176;-4.554;2023-03-23T04:53:22;98374.31;;;8.39;55.70
78755;BME280;68073;54.176;-4.554;2023-03-23T04:55:47;98368.96;;;8.31;55.91
78755;BME280;68073;54.176;-4.554;2023-03-23T04:58:13;98372.41;;;8.53;55.91
78755;BME280;68073;54.176;-4.554;2023-03-23T05:00:37;98368.11;;;8.65;55.65
78755;BME280;68073;54.176;-4.554;2023-03-23T05:03:03;98371.72;;;8.25;56.20
78755;BME280;68073;54.176;-4.554;2023-03-23T05:05:28;98372.66;;;8.27;56.16
78755;BME280;68073;54.176;-4.554;2023-03-23T05:07:53;98373.23;;;8.59;55.46
78755;BME280;68073;54.176;-4.554;2023-03-23T05:10:19;98373.29;;;8.66;55.24
78755;BME280;68073;54.176;-4.554;2023-03-23T05:12:45;98378.95;;;8.87;54.80
78755;BME280;68073;54.176;-4.554;2023-03-23T05:15:11;98378.45;;;8.68;54.62
78755;BME280;68073;54.176;-4.554;2023-03-23T05:17:36;98376.25;;;8.30;55.21
78755;BME280;68073;54.176;-4.554;2023-03-23T05:20:02;98377.69;;;7.88;55.32
78755;BME280;68073;54.176;-4.554;2023-03-23T05:22:26;98380.05;;;7.96;55.32
78755;BME280;68073;54.176;-4.554;2023-03-23T05:24:51;98376.40;;;8.15;55.48
78755;BME280;68073;54.176;-4.554;2023-03-23T05:27:16;98373.73;;;7.99;55.22
78755;BME280;68073;54.176;-4.554;2023-03-23T05:29:41;98369.68;;;8.09;54.79
78755;BME280;68073;54.176;-4.554;2023-03-23T05:32:07;98368.15;;;8.02;54.55
78755;BME280;68073;54.176;-4.554;2023-03-23T05:34:31;98364.11;;;7.85;54.58
78755;BME280;68073;54.176;-4.554;2023-03-23T05:36:57;98368.06;;;7.84;54.56
78755;BME280;68073;54.176;-4.554;2023-03-23T05:39:22;98358.93;;;7.89;54.32
78755;BME280;68073;54.176;-4.554;2023-03-23T05:41:47;98358.54;;;8.18;53.97
78755;BME280;68073;54.176;-4.554;2023-03-23T05:44:13;98355.57;;;8.27;53.71
78755;BME280;68073;54.176;-4.554;2023-03-23T05:46:37;98355.84;;;8.22;53.22
78755;BME280;68073;54.176;-4.554;2023-03-23T05:49:03;98353.14;;;8.01;53.61
78755;BME280;68073;54.176;-4.554;2023-03-23T05:51:28;98357.62;;;8.08;53.96
78755;BME280;68073;54.176;-4.554;2023-03-23T05:53:53;98351.20;;;8.20;53.80
78755;BME280;68073;54.176;-4.554;2023-03-23T05:56:19;98350.58;;;8.49;53.35
78755;BME280;68073;54.176;-4.554;2023-03-23T05:58:44;98358.68;;;8.07;53.29
78755;BME280;68073;54.176;-4.554;2023-03-23T06:01:14;98362.26;;;8.03;53.44
78755;BME280;68073;54.176;-4.554;2023-03-23T06:03:34;98364.71;;;8.38;52.81
78755;BME280;68073;54.176;-4.554;2023-03-23T06:05:59;98369.99;;;8.28;53.05
78755;BME280;68073;54.176;-4.554;2023-03-23T06:08:24;98368.10;;;8.17;53.19
78755;BME280;68073;54.176;-4.554;2023-03-23T06:10:49;98367.63;;;8.22;53.33
78755;BME280;68073;54.176;-4.554;2023-03-23T06:13:14;98366.37;;;8.33;53.06
78755;BME280;68073;54.176;-4.554;2023-03-23T06:15:40;98370.20;;;8.26;53.36
78755;BME280;68073;54.176;-4.554;2023-03-23T06:18:05;98374.05;;;8.37;53.71
78755;BME280;68073;54.176;-4.554;2023-03-23T06:20:30;98372.80;;;8.24;53.51
78755;BME280;68073;54.176;-4.554;2023-03-23T06:22:56;98370.76;;;8.13;53.31
78755;BME280;68073;54.176;-4.554;2023-03-23T06:25:21;98373.73;;;8.12;53.82
78755;BME280;68073;54.176;-4.554;2023-03-23T06:27:46;98369.71;;;8.15;53.31
78755;BME280;68073;54.176;-4.554;2023-03-23T06:30:13;98370.76;;;8.25;53.64
78755;BME280;68073;54.176;-4.554;2023-03-23T06:32:37;98368.79;;;8.04;53.87
78755;BME280;68073;54.176;-4.554;2023-03-23T06:35:03;98370.91;;;8.44;53.41
78755;BME280;68073;54.176;-4.554;2023-03-23T06:37:28;98371.20;;;8.29;53.64
78755;BME280;68073;54.176;-4.554;2023-03-23T06:39:53;98369.77;;;8.41;53.32
78755;BME280;68073;54.176;-4.554;2023-03-23T06:42:19;98370.55;;;8.43;53.13
78755;BME280;68073;54.176;-4.554;2023-03-23T06:44:44;98370.29;;;8.29;53.25
78755;BME280;68073;54.176;-4.554;2023-03-23T06:47:09;98374.32;;;8.09;53.26
78755;BME280;68073;54.176;-4.554;2023-03-23T06:49:34;98376.13;;;7.95;53.69
78755;BME280;68073;54.176;-4.554;2023-03-23T06:51:59;98373.92;;;8.39;53.34
78755;BME280;68073;54.176;-4.554;2023-03-23T06:54:26;98370.73;;;8.45;53.24
78755;BME280;68073;54.176;-4.554;2023-03-23T06:56:50;98375.49;;;8.58;53.06
78755;BME280;68073;54.176;-4.554;2023-03-23T06:59:16;98372.74;;;8.60;53.16
78755;BME280;68073;54.176;-4.554;2023-03-23T07:01:41;98374.15;;;8.45;53.63
78755;BME280;68073;54.176;-4.554;2023-03-23T07:04:06;98372.42;;;8.58;53.43
78755;BME280;68073;54.176;-4.554;2023-03-23T07:06:32;98369.84;;;8.55;53.27
78755;BME280;68073;54.176;-4.554;2023-03-23T07:08:56;98369.53;;;8.33;54.19
78755;BME280;68073;54.176;-4.554;2023-03-23T07:11:22;98367.67;;;8.18;54.66
78755;BME280;68073;54.176;-4.554;2023-03-23T07:13:47;98369.48;;;8.53;54.17
78755;BME280;68073;54.176;-4.554;2023-03-23T07:16:12;98374.42;;;8.28;54.79
78755;BME280;68073;54.176;-4.554;2023-03-23T07:18:37;98374.45;;;8.67;53.97
78755;BME280;68073;54.176;-4.554;2023-03-23T07:21:03;98372.35;;;8.71;53.95
78755;BME280;68073;54.176;-4.554;2023-03-23T07:23:29;98375.20;;;8.75;53.98
78755;BME280;68073;54.176;-4.554;2023-03-23T07:25:53;98372.81;;;8.44;54.47
78755;BME280;68073;54.176;-4.554;2023-03-23T07:28:18;98371.89;;;8.62;54.08
78755;BME280;68073;54.176;-4.554;2023-03-23T07:30:44;98369.94;;;8.60;54.23
78755;BME280;68073;54.176;-4.554;2023-03-23T07:33:10;98372.92;;;8.17;54.66
78755;BME280;68073;54.176;-4.554;2023-03-23T07:35:35;98376.74;;;8.28;54.57
78755;BME280;68073;54.176;-4.554;2023-03-23T07:38:01;98378.70;;;8.43;54.30
78755;BME280;68073;54.176;-4.554;2023-03-23T07:40:26;98376.85;;;8.21;54.75
78755;BME280;68073;54.176;-4.554;2023-03-23T07:42:53;98379.19;;;8.47;54.36
78755;BME280;68073;54.176;-4.554;2023-03-23T07:45:16;98383.29;;;8.14;54.50
78755;BME280;68073;54.176;-4.554;2023-03-23T07:47:42;98384.20;;;8.32;54.63
78755;BME280;68073;54.176;-4.554;2023-03-23T07:50:08;98382.98;;;8.25;54.79
78755;BME280;68073;54.176;-4.554;2023-03-23T07:52:33;98385.49;;;8.85;53.65
78755;BME280;68073;54.176;-4.554;2023-03-23T07:54:58;98391.77;;;8.45;53.99
78755;BME280;68073;54.176;-4.554;2023-03-23T07:57:24;98391.14;;;8.98;53.63
78755;BME280;68073;54.176;-4.554;2023-03-23T07:59:49;98397.08;;;8.89;53.87
78755;BME280;68073;54.176;-4.554;2023-03-23T08:02:14;98407.22;;;8.45;54.34
78755;BME280;68073;54.176;-4.554;2023-03-23T08:04:39;98407.02;;;8.65;54.40
78755;BME280;68073;54.176;-4.554;2023-03-23T08:07:04;98406.36;;;8.94;53.78
78755;BME280;68073;54.176;-4.554;2023-03-23T08:09:30;98413.91;;;8.93;54.01
78755;BME280;68073;54.176;-4.554;2023-03-23T08:11:55;98409.29;;;9.05;54.06
78755;BME280;68073;54.176;-4.554;2023-03-23T08:14:20;98419.93;;;8.70;53.69
78755;BME280;68073;54.176;-4.554;2023-03-23T08:16:45;98421.03;;;8.42;54.57
78755;BME280;68073;54.176;-4.554;2023-03-23T08:19:10;98424.41;;;8.14;54.62
78755;BME280;68073;54.176;-4.554;2023-03-23T08:21:35;98415.80;;;8.65;53.99
78755;BME280;68073;54.176;-4.554;2023-03-23T08:24:00;98423.04;;;8.70;54.14
78755;BME280;68073;54.176;-4.554;2023-03-23T08:26:25;98428.73;;;8.60;54.38
78755;BME280;68073;54.176;-4.554;2023-03-23T08:28:50;98427.87;;;8.70;54.40
78755;BME280;68073;54.176;-4.554;2023-03-23T08:31:16;98431.01;;;8.59;54.64
78755;BME280;68073;54.176;-4.554;2023-03-23T08:33:41;98434.21;;;8.62;54.56
78755;BME280;68073;54.176;-4.554;2023-03-23T08:36:07;98433.42;;;9.21;53.48
78755;BME280;68073;54.176;-4.554;2023-03-23T08:38:32;98433.82;;;8.87;53.63
78755;BME280;68073;54.176;-4.554;2023-03-23T08:40:58;98435.97;;;8.62;54.68
78755;BME280;68073;54.176;-4.554;2023-03-23T08:43:22;98437.96;;;8.57;55.20
78755;BME280;68073;54.176;-4.554;2023-03-23T08:45:47;98436.82;;;8.72;54.34
78755;BME280;68073;54.176;-4.554;2023-03-23T08:48:12;98434.54;;;8.65;54.17
78755;BME280;68073;54.176;-4.554;2023-03-23T08:50:37;98430.01;;;8.81;53.48
78755;BME280;68073;54.176;-4.554;2023-03-23T08:53:02;98434.82;;;8.99;53.17
78755;BME280;68073;54.176;-4.554;2023-03-23T08:55:29;98444.54;;;8.59;54.52
78755;BME280;68073;54.176;-4.554;2023-03-23T08:57:53;98443.19;;;8.74;55.02
78755;BME280;68073;54.176;-4.554;2023-03-23T09:00:21;98440.77;;;9.09;54.86
78755;BME280;68073;54.176;-4.554;2023-03-23T09:02:45;98443.85;;;9.04;54.61
78755;BME280;68073;54.176;-4.554;2023-03-23T09:05:10;98445.33;;;8.99;55.30
78755;BME280;68073;54.176;-4.554;2023-03-23T09:07:35;98443.21;;;8.89;54.70
78755;BME280;68073;54.176;-4.554;2023-03-23T09:10:00;98447.05;;;8.66;56.26
78755;BME280;68073;54.176;-4.554;2023-03-23T09:12:25;98447.04;;;8.87;55.52
78755;BME280;68073;54.176;-4.554;2023-03-23T09:14:50;98441.13;;;9.18;56.02
78755;BME280;68073;54.176;-4.554;2023-03-23T09:17:15;98437.99;;;8.82;55.82
78755;BME280;68073;54.176;-4.554;2023-03-23T09:19:40;98438.01;;;8.99;55.56
78755;BME280;68073;54.176;-4.554;2023-03-23T09:22:05;98435.50;;;9.31;55.44
78755;BME280;68073;54.176;-4.554;2023-03-23T09:24:31;98434.77;;;9.67;55.31
78755;BME280;68073;54.176;-4.554;2023-03-23T09:26:56;98444.28;;;9.14;55.74
78755;BME280;68073;54.176;-4.554;2023-03-23T09:29:21;98443.55;;;9.71;55.44
78755;BME280;68073;54.176;-4.554;2023-03-23T09:31:47;98441.25;;;9.53;55.39
78755;BME280;68073;54.176;-4.554;2023-03-23T09:34:12;98449.47;;;8.97;55.67
78755;BME280;68073;54.176;-4.554;2023-03-23T09:36:38;98438.52;;;9.86;54.74
78755;BME280;68073;54.176;-4.554;2023-03-23T09:39:02;98441.01;;;9.22;55.14
78755;BME280;68073;54.176;-4.554;2023-03-23T09:41:38;98446.31;;;9.19;55.26
78755;BME280;68073;54.176;-4.554;2023-03-23T09:44:02;98447.16;;;9.27;54.98
78755;BME280;68073;54.176;-4.554;2023-03-23T09:46:27;98453.40;;;9.20;55.04
78755;BME280;68073;54.176;-4.554;2023-03-23T09:48:49;98445.27;;;9.11;55.02
78755;BME280;68073;54.176;-4.554;2023-03-23T09:51:15;98452.32;;;9.02;55.15
78755;BME280;68073;54.176;-4.554;2023-03-23T09:53:37;98448.91;;;9.14;54.62
78755;BME280;68073;54.176;-4.554;2023-03-23T09:55:59;98463.43;;;9.06;54.07
78755;BME280;68073;54.176;-4.554;2023-03-23T09:58:28;98458.34;;;9.14;54.59
78755;BME280;68073;54.176;-4.554;2023-03-23T10:00:54;98460.44;;;9.05;54.88
78755;BME280;68073;54.176;-4.554;2023-03-23T10:03:17;98460.43;;;9.17;54.28
78755;BME280;68073;54.176;-4.554;2023-03-23T10:05:42;98458.09;;;9.19;54.04
78755;BME280;68073;54.176;-4.554;2023-03-23T10:08:11;98458.53;;;9.39;53.66
78755;BME280;68073;54.176;-4.554;2023-03-23T10:10:39;98470.15;;;9.43;53.37
78755;BME280;68073;54.176;-4.554;2023-03-23T10:13:01;98464.07;;;9.40;53.32
78755;BME280;68073;54.176;-4.554;2023-03-23T10:15:25;98474.25;;;9.69;52.62
78755;BME280;68073;54.176;-4.554;2023-03-23T10:17:52;98487.11;;;9.54;52.98
78755;BME280;68073;54.176;-4.554;2023-03-23T10:20:23;98493.57;;;9.50;52.68
78755;BME280;68073;54.176;-4.554;2023-03-23T10:22:42;98487.42;;;10.02;51.86
78755;BME280;68073;54.176;-4.554;2023-03-23T10:25:15;98491.21;;;9.78;51.90
78755;BME280;68073;54.176;-4.554;2023-03-23T10:27:34;98501.67;;;9.71;52.38
78755;BME280;68073;54.176;-4.554;2023-03-23T10:30:01;98503.44;;;10.09;52.02
78755;BME280;68073;54.176;-4.554;2023-03-23T10:32:34;98498.28;;;10.07;51.88
78755;BME280;68073;54.176;-4.554;2023-03-23T10:34:51;98503.92;;;10.01;52.07
78755;BME280;68073;54.176;-4.554;2023-03-23T10:37:16;98506.16;;;9.86;51.83
78755;BME280;68073;54.176;-4.554;2023-03-23T10:39:44;98503.55;;;10.19;50.94
78755;BME280;68073;54.176;-4.554;2023-03-23T10:42:04;98502.45;;;10.26;51.18
78755;BME280;68073;54.176;-4.554;2023-03-23T10:44:29;98493.20;;;10.83;50.24
78755;BME280;68073;54.176;-4.554;2023-03-23T10:46:58;98495.11;;;10.79;50.53
78755;BME280;68073;54.176;-4.554;2023-03-23T10:49:23;98489.50;;;10.47;50.64
78755;BME280;68073;54.176;-4.554;2023-03-23T10:51:51;98490.28;;;10.93;49.75
78755;BME280;68073;54.176;-4.554;2023-03-23T10:54:12;98500.06;;;11.18;50.31
78755;BME280;68073;54.176;-4.554;2023-03-23T10:56:40;98499.94;;;11.22;49.69
78755;BME280;68073;54.176;-4.554;2023-03-23T10:59:14;98498.58;;;11.32;49.05
78755;BME280;68073;54.176;-4.554;2023-03-23T11:01:31;98501.60;;;11.31;49.07
78755;BME280;68073;54.176;-4.554;2023-03-23T11:03:55;98491.02;;;11.54;48.90
78755;BME280;68073;54.176;-4.554;2023-03-23T11:06:22;98496.36;;;11.79;48.23
78755;BME280;68073;54.176;-4.554;2023-03-23T11:08:52;98498.94;;;11.64;48.51
78755;BME280;68073;54.176;-4.554;2023-03-23T11:11:15;98500.54;;;11.65;48.37
78755;BME280;68073;54.176;-4.554;2023-03-23T11:13:41;98494.89;;;11.92;48.18
78755;BME280;68073;54.176;-4.554;2023-03-23T11:16:03;98497.37;;;12.44;46.86
78755;BME280;68073;54.176;-4.554;2023-03-23T11:18:35;98489.55;;;12.35;47.32
78755;BME280;68073;54.176;-4.554;2023-03-23T11:20:56;98494.52;;;12.89;46.22
78755;BME280;68073;54.176;-4.554;2023-03-23T11:23:21;98485.25;;;12.80;45.81
78755;BME280;68073;54.176;-4.554;2023-03-23T11:25:57;98478.09;;;13.02;45.53
78755;BME280;68073;54.176;-4.554;2023-03-23T11:28:11;98486.85;;;13.06;45.04
78755;BME280;68073;54.176;-4.554;2023-03-23T11:30:36;98486.77;;;12.98;45.61
78755;BME280;68073;54.176;-4.554;2023-03-23T11:33:02;98483.49;;;13.58;44.88
78755;BME280;68073;54.176;-4.554;2023-03-23T11:35:28;98485.66;;;13.36;44.93
78755;BME280;68073;54.176;-4.554;2023-03-23T11:37:54;98484.98;;;13.66;45.15
78755;BME280;68073;54.176;-4.554;2023-03-23T11:40:20;98484.38;;;13.87;44.40
78755;BME280;68073;54.176;-4.554;2023-03-23T11:42:46;98484.13;;;13.94;44.51
78755;BME280;68073;54.176;-4.554;2023-03-23T11:45:18;98483.28;;;13.80;43.88
78755;BME280;68073;54.176;-4.554;2023-03-23T11:47:39;98484.27;;;13.97;43.78
78755;BME280;68073;54.176;-4.554;2023-03-23T11:50:14;98489.69;;;14.21;43.43
78755;BME280;68073;54.176;-4.554;2023-03-23T11:52:32;98476.75;;;14.63;42.69
78755;BME280;68073;54.176;-4.554;2023-03-23T11:54:56;98477.93;;;14.42;42.68
78755;BME280;68073;54.176;-4.554;2023-03-23T11:57:17;98473.16;;;14.11;43.48
78755;BME280;68073;54.176;-4.554;2023-03-23T11:59:42;98473.70;;;14.19;42.08
78755;BME280;68073;54.176;-4.554;2023-03-23T12:02:19;98478.49;;;14.82;41.60
78755;BME280;68073;54.176;-4.554;2023-03-23T12:04:41;98480.45;;;15.06;41.36
78755;BME280;68073;54.176;-4.554;2023-03-23T12:07:08;98477.95;;;15.45;40.94
78755;BME280;68073;54.176;-4.554;2023-03-23T12:09:38;98475.38;;;15.12;40.64
78755;BME280;68073;54.176;-4.554;2023-03-23T12:12:05;98472.20;;;15.32;40.37
78755;BME280;68073;54.176;-4.554;2023-03-23T12:14:21;98477.33;;;15.46;39.44
78755;BME280;68073;54.176;-4.554;2023-03-23T12:16:52;98477.10;;;15.64;39.07
78755;BME280;68073;54.176;-4.554;2023-03-23T12:19:12;98482.53;;;16.06;38.22
78755;BME280;68073;54.176;-4.554;2023-03-23T12:21:41;98472.67;;;15.88;38.51
78755;BME280;68073;54.176;-4.554;2023-03-23T12:24:03;98472.58;;;15.55;39.37
78755;BME280;68073;54.176;-4.554;2023-03-23T12:26:26;98475.12;;;15.71;38.59
78755;BME280;68073;54.176;-4.554;2023-03-23T12:29:06;98473.22;;;16.29;37.84
78755;BME280;68073;54.176;-4.554;2023-03-23T12:31:20;98475.84;;;16.43;36.68
78755;BME280;68073;54.176;-4.554;2023-03-23T12:33:49;98485.25;;;16.92;36.44
78755;BME280;68073;54.176;-4.554;2023-03-23T12:36:13;98475.95;;;17.01;36.25
78755;BME280;68073;54.176;-4.554;2023-03-23T12:38:45;98471.48;;;17.03;36.30
78755;BME280;68073;54.176;-4.554;2023-03-23T12:41:05;98481.77;;;17.37;35.68
78755;BME280;68073;54.176;-4.554;2023-03-23T12:43:28;98476.33;;;17.51;34.53
78755;BME280;68073;54.176;-4.554;2023-03-23T12:46:00;98467.86;;;18.33;33.89
78755;BME280;68073;54.176;-4.554;2023-03-23T12:48:18;98471.64;;;18.80;32.84